createdAt,value
2022-10-28T00:01:22.556Z,73.54
2022-10-28T00:03:49.663Z,73.47
2022-10-28T00:06:15.982Z,73.31
2022-10-28T00:08:42.379Z,73.61
2022-10-28T00:11:08.622Z,73.31
2022-10-28T00:13:35.137Z,73.47
2022-10-28T00:16:01.396Z,73.13
2022-10-28T00:18:27.998Z,73.53
2022-10-28T00:20:54.321Z,73.22
2022-10-28T00:23:21.017Z,73.53
2022-10-28T00:25:47.356Z,73.25
2022-10-28T00:28:15.333Z,73.64
2022-10-28T00:30:41.608Z,73.63
2022-10-28T00:33:09.877Z,73.63
2022-10-28T00:35:36.349Z,73.34
2022-10-28T00:38:02.682Z,73.14
2022-10-28T00:40:30.572Z,73.27
2022-10-28T00:42:56.924Z,73.68
2022-10-28T00:45:23.314Z,73.43
2022-10-28T00:47:49.653Z,73.35
2022-10-28T00:50:15.949Z,73.31
2022-10-28T00:52:42.216Z,73.61
2022-10-28T00:55:08.941Z,73.39
2022-10-28T00:57:35.220Z,73.66
2022-10-28T01:00:01.502Z,73.44
2022-10-28T01:02:27.919Z,73.44
2022-10-28T01:04:55.561Z,73.57
2022-10-28T01:07:21.940Z,73.69
2022-10-28T01:09:49.914Z,73.72
2022-10-28T01:12:16.264Z,73.90
2022-10-28T01:14:42.955Z,73.66
2022-10-28T01:17:09.489Z,73.84
2022-10-28T01:19:37.256Z,73.75
2022-10-28T01:22:03.696Z,73.46
2022-10-28T01:24:30.052Z,73.62
2022-10-28T01:26:56.533Z,73.53
2022-10-28T01:29:22.865Z,73.69
2022-10-28T01:31:49.721Z,73.73
2022-10-28T01:34:16.057Z,73.24
2022-10-28T01:36:42.829Z,73.74
2022-10-28T01:39:09.349Z,73.60
2022-10-28T01:41:36.174Z,73.68
2022-10-28T01:44:02.496Z,73.63
2022-10-28T01:46:28.846Z,73.68
2022-10-28T01:48:55.470Z,73.40
2022-10-28T01:51:21.736Z,73.60
2022-10-28T01:53:48.076Z,73.68
2022-10-28T01:56:14.357Z,73.80
2022-10-28T01:58:41.495Z,73.62
2022-10-28T02:01:08.031Z,73.35
2022-10-28T02:03:34.526Z,73.36
2022-10-28T02:06:00.808Z,73.34
2022-10-28T02:08:27.157Z,73.44
2022-10-28T02:10:53.441Z,73.35
2022-10-28T02:13:20.048Z,73.29
2022-10-28T02:15:46.386Z,73.66
2022-10-28T02:18:12.838Z,73.61
2022-10-28T02:20:39.140Z,73.34
2022-10-28T02:23:05.680Z,73.67
2022-10-28T02:25:32.097Z,73.41
2022-10-28T02:27:58.479Z,73.50
2022-10-28T02:30:24.940Z,73.51
2022-10-28T02:32:51.689Z,73.19
2022-10-28T02:35:18.354Z,73.28
2022-10-28T02:37:44.858Z,73.53
2022-10-28T02:40:11.164Z,73.48
2022-10-28T02:42:37.457Z,73.26
2022-10-28T02:45:03.972Z,73.55
2022-10-28T02:47:30.234Z,73.14
2022-10-28T02:49:56.460Z,73.66
2022-10-28T02:52:22.761Z,73.42
2022-10-28T02:54:49.166Z,73.37
2022-10-28T02:57:15.468Z,73.18
2022-10-28T02:59:41.816Z,73.14
2022-10-28T03:02:08.316Z,73.56
2022-10-28T03:04:34.698Z,73.31
2022-10-28T03:07:01.103Z,73.19
2022-10-28T03:09:27.505Z,73.31
2022-10-28T03:11:53.847Z,73.20
2022-10-28T03:14:20.143Z,73.45
2022-10-28T03:16:46.816Z,73.06
2022-10-28T03:19:13.075Z,73.16
2022-10-28T03:21:39.377Z,73.17
2022-10-28T03:24:06.092Z,73.45
2022-10-28T03:26:32.461Z,73.23
2022-10-28T03:28:58.978Z,73.30
2022-10-28T03:31:25.389Z,73.37
2022-10-28T03:33:51.761Z,73.20
2022-10-28T03:36:18.018Z,73.27
2022-10-28T03:38:44.424Z,73.15
2022-10-28T03:41:10.721Z,73.41
2022-10-28T03:43:36.963Z,73.24
2022-10-28T03:46:03.453Z,73.01
2022-10-28T03:48:30.069Z,73.37
2022-10-28T03:50:56.486Z,73.18
2022-10-28T03:53:26.296Z,73.30
2022-10-28T03:55:54.232Z,73.38
2022-10-28T03:58:20.988Z,73.11
2022-10-28T04:00:47.433Z,73.13
2022-10-28T04:03:14.217Z,73.17
2022-10-28T04:05:40.666Z,73.34
2022-10-28T04:08:07.213Z,73.39
2022-10-28T04:10:33.566Z,73.12
2022-10-28T04:12:59.904Z,73.41
2022-10-28T04:15:26.219Z,73.49
2022-10-28T04:17:52.666Z,73.16
2022-10-28T04:20:18.973Z,73.17
2022-10-28T04:22:45.251Z,73.08
2022-10-28T04:25:12.742Z,73.12
2022-10-28T04:27:39.129Z,73.00
2022-10-28T04:30:05.436Z,72.89
2022-10-28T04:32:31.842Z,72.99
2022-10-28T04:34:58.130Z,73.28
2022-10-28T04:37:24.433Z,73.00
2022-10-28T04:39:50.845Z,72.96
2022-10-28T04:42:17.353Z,72.97
2022-10-28T04:44:43.993Z,73.02
2022-10-28T04:47:10.310Z,73.05
2022-10-28T04:49:38.854Z,73.00
2022-10-28T04:52:05.317Z,73.41
2022-10-28T04:54:31.645Z,73.07
2022-10-28T04:56:58.264Z,73.14
2022-10-28T04:59:24.556Z,72.81
2022-10-28T05:01:51.354Z,73.07
2022-10-28T05:04:17.823Z,73.14
2022-10-28T05:06:44.317Z,72.89
2022-10-28T05:09:10.568Z,73.24
2022-10-28T05:11:36.914Z,73.00
2022-10-28T05:14:03.195Z,72.98
2022-10-28T05:16:29.908Z,73.13
2022-10-28T05:18:56.183Z,73.26
2022-10-28T05:21:22.658Z,73.27
2022-10-28T05:23:48.956Z,72.69
2022-10-28T05:26:15.371Z,73.37
2022-10-28T05:28:41.710Z,73.31
2022-10-28T05:31:08.027Z,73.05
2022-10-28T05:33:34.504Z,73.06
2022-10-28T05:36:00.848Z,73.21
2022-10-28T05:38:27.212Z,73.19
2022-10-28T05:40:53.645Z,72.96
2022-10-28T05:43:19.911Z,73.18
2022-10-28T05:45:46.174Z,72.85
2022-10-28T05:48:12.514Z,73.37
2022-10-28T05:50:38.890Z,72.98
2022-10-28T05:53:05.584Z,73.27
2022-10-28T05:55:31.951Z,73.16
2022-10-28T05:57:58.448Z,73.09
2022-10-28T06:00:24.735Z,73.01
2022-10-28T06:02:52.677Z,72.89
2022-10-28T06:05:19.236Z,72.60
2022-10-28T06:07:45.544Z,72.52
2022-10-28T06:10:13.184Z,72.60
2022-10-28T06:12:38.084Z,72.61
2022-10-28T06:15:04.449Z,72.74
2022-10-28T06:17:30.961Z,72.60
2022-10-28T06:19:57.265Z,72.98
2022-10-28T06:22:26.707Z,72.75
2022-10-28T06:24:53.275Z,72.95
2022-10-28T06:27:19.750Z,72.92
2022-10-28T06:29:46.352Z,72.69
2022-10-28T06:32:13.683Z,72.73
2022-10-28T06:34:40.074Z,72.88
2022-10-28T06:37:06.378Z,72.79
2022-10-28T06:39:32.812Z,72.79
2022-10-28T06:41:59.396Z,73.05
2022-10-28T06:44:25.833Z,72.71
2022-10-28T06:46:53.787Z,73.03
2022-10-28T06:49:20.259Z,72.96
2022-10-28T06:51:46.613Z,73.41
2022-10-28T06:54:13.031Z,72.99
2022-10-28T06:56:39.415Z,73.31
2022-10-28T06:59:05.811Z,72.80
2022-10-28T07:01:32.367Z,72.93
2022-10-28T07:03:59.798Z,73.07
2022-10-28T07:06:26.072Z,73.19
2022-10-28T07:08:53.086Z,72.64
2022-10-28T07:11:19.787Z,73.02
2022-10-28T07:13:48.882Z,72.70
2022-10-28T07:16:15.502Z,72.74
2022-10-28T07:18:42.014Z,72.45
2022-10-28T07:21:08.471Z,72.69
2022-10-28T07:23:36.422Z,72.28
2022-10-28T07:26:02.741Z,72.86
2022-10-28T07:28:29.442Z,72.58
2022-10-28T07:30:55.818Z,72.49
2022-10-28T07:33:22.256Z,72.50
2022-10-28T07:35:49.524Z,72.70
2022-10-28T07:38:15.902Z,72.44
2022-10-28T07:40:42.293Z,72.58
2022-10-28T07:43:08.565Z,72.72
2022-10-28T07:45:34.918Z,72.52
2022-10-28T07:48:01.244Z,72.88
2022-10-28T07:50:27.620Z,72.73
2022-10-28T07:52:54.263Z,72.75
2022-10-28T07:55:20.767Z,72.81
2022-10-28T07:57:47.058Z,72.49
2022-10-28T08:00:13.548Z,72.51
2022-10-28T08:02:40.837Z,72.61
2022-10-28T08:05:07.144Z,72.63
2022-10-28T08:07:36.231Z,72.52
2022-10-28T08:10:05.070Z,72.69
2022-10-28T08:12:31.383Z,72.80
2022-10-28T08:14:57.633Z,72.84
2022-10-28T08:17:23.991Z,72.50
2022-10-28T08:19:50.302Z,72.65
2022-10-28T08:22:16.620Z,72.83
2022-10-28T08:24:42.867Z,72.78
2022-10-28T08:27:09.254Z,72.97
2022-10-28T08:29:35.532Z,72.72
2022-10-28T08:32:01.781Z,73.07
2022-10-28T08:34:28.036Z,72.90
2022-10-28T08:36:54.513Z,72.61
2022-10-28T08:39:20.877Z,72.72
2022-10-28T08:41:47.228Z,72.94
2022-10-28T08:44:13.567Z,73.06
2022-10-28T08:46:39.866Z,73.02
2022-10-28T08:49:06.210Z,73.11
2022-10-28T08:51:32.624Z,72.89
2022-10-28T08:54:00.464Z,73.07
2022-10-28T08:56:26.919Z,73.15
2022-10-28T08:58:53.281Z,73.03
2022-10-28T09:01:19.762Z,73.04
2022-10-28T09:03:46.327Z,73.05
2022-10-28T09:06:12.656Z,73.29
2022-10-28T09:08:38.945Z,73.11
2022-10-28T09:11:05.306Z,73.26
2022-10-28T09:13:31.630Z,73.48
2022-10-28T09:15:58.011Z,73.80
2022-10-28T09:18:24.547Z,73.58
2022-10-28T09:20:51.060Z,73.53
2022-10-28T09:23:17.359Z,73.72
2022-10-28T09:25:45.482Z,73.55
2022-10-28T09:28:11.735Z,73.76
2022-10-28T09:30:38.416Z,73.62
2022-10-28T09:33:04.934Z,73.63
2022-10-28T09:35:31.274Z,73.83
2022-10-28T09:37:57.640Z,73.70
2022-10-28T09:40:23.907Z,73.75
2022-10-28T09:42:50.455Z,73.61
2022-10-28T09:45:16.691Z,73.66
2022-10-28T09:47:43.078Z,73.78
2022-10-28T09:50:09.455Z,73.87
2022-10-28T09:52:35.865Z,73.88
2022-10-28T09:55:02.419Z,73.82
2022-10-28T09:57:28.729Z,73.84
2022-10-28T09:59:54.993Z,73.78
2022-10-28T10:02:21.509Z,73.91
2022-10-28T10:04:47.837Z,73.56
2022-10-28T10:07:14.180Z,73.51
2022-10-28T10:09:40.767Z,73.65
2022-10-28T10:12:07.214Z,73.90
2022-10-28T10:14:33.536Z,73.50
2022-10-28T10:16:59.822Z,73.84
2022-10-28T10:19:26.113Z,73.89
2022-10-28T10:21:52.429Z,73.53
2022-10-28T10:24:18.843Z,73.63
2022-10-28T10:26:45.199Z,73.63
2022-10-28T10:29:11.459Z,73.75
2022-10-28T10:31:37.760Z,73.91
2022-10-28T10:34:04.031Z,73.65
2022-10-28T10:36:30.403Z,73.61
2022-10-28T10:38:56.822Z,73.58
2022-10-28T10:41:24.162Z,73.47
2022-10-28T10:43:50.567Z,73.60
2022-10-28T10:46:16.893Z,73.51
2022-10-28T10:48:43.160Z,73.90
2022-10-28T10:51:09.988Z,74.07
2022-10-28T10:53:36.334Z,73.81
2022-10-28T10:56:02.796Z,73.81
2022-10-28T10:58:29.188Z,73.84
2022-10-28T11:00:56.660Z,73.63
2022-10-28T11:03:23.106Z,73.64
2022-10-28T11:05:55.119Z,73.76
2022-10-28T11:08:32.120Z,73.88
2022-10-28T11:10:58.461Z,73.93
2022-10-28T11:13:24.998Z,73.94
2022-10-28T11:15:51.333Z,73.69
2022-10-28T11:18:17.834Z,74.04
2022-10-28T11:20:44.139Z,73.51
2022-10-28T11:23:11.641Z,74.04
2022-10-28T11:25:38.089Z,73.74
2022-10-28T11:28:04.775Z,73.91
2022-10-28T11:30:31.088Z,73.67
2022-10-28T11:33:14.739Z,73.92
2022-10-28T11:35:43.981Z,73.79
2022-10-28T11:38:10.418Z,73.92
2022-10-28T11:40:36.706Z,73.84
2022-10-28T11:43:03.075Z,73.71
2022-10-28T11:45:29.612Z,73.71
2022-10-28T11:47:56.335Z,73.65
2022-10-28T11:50:24.308Z,73.69
2022-10-28T11:52:50.903Z,74.08
2022-10-28T11:55:17.486Z,74.13
2022-10-28T11:57:43.818Z,73.61
2022-10-28T12:00:10.104Z,73.71
2022-10-28T12:02:36.528Z,74.15
2022-10-28T12:05:02.945Z,74.08
2022-10-28T12:07:29.302Z,73.76
2022-10-28T12:09:55.843Z,74.10
2022-10-28T12:12:22.272Z,73.63
2022-10-28T12:14:48.628Z,73.77
2022-10-28T12:17:14.939Z,74.36
2022-10-28T12:19:41.234Z,74.11
2022-10-28T12:22:07.600Z,74.02
2022-10-28T12:24:34.089Z,74.71
2022-10-28T12:27:00.664Z,76.97
2022-10-28T12:29:26.943Z,77.64
2022-10-28T12:31:53.915Z,77.87
2022-10-28T12:34:20.436Z,78.24
2022-10-28T12:36:46.741Z,78.97
2022-10-28T12:39:13.293Z,79.45
2022-10-28T12:41:39.770Z,79.33
2022-10-28T12:44:06.263Z,79.70
2022-10-28T12:46:32.776Z,80.07
2022-10-28T12:48:59.074Z,79.81
2022-10-28T12:51:25.943Z,79.91
2022-10-28T12:53:52.411Z,80.23
2022-10-28T12:56:18.724Z,80.11
2022-10-28T12:58:45.198Z,79.94
2022-10-28T13:01:11.602Z,79.90
2022-10-28T13:03:38.329Z,80.00
2022-10-28T13:06:05.260Z,80.26
2022-10-28T13:08:31.840Z,79.93
2022-10-28T13:10:58.520Z,80.09
2022-10-28T13:13:24.872Z,79.93
2022-10-28T13:15:51.228Z,79.97
2022-10-28T13:18:17.812Z,80.04
2022-10-28T13:20:44.191Z,80.01
2022-10-28T13:23:10.503Z,80.21
2022-10-28T13:25:37.079Z,80.58
2022-10-28T13:34:04.418Z,81.14
2022-10-28T13:36:30.716Z,81.11
2022-10-28T13:38:56.943Z,81.18
2022-10-28T13:41:23.266Z,81.12
2022-10-28T13:43:49.529Z,80.88
2022-10-28T13:46:15.860Z,81.11
2022-10-28T13:48:42.227Z,81.25
2022-10-28T13:51:08.671Z,81.12
2022-10-28T13:53:34.957Z,80.85
2022-10-28T13:56:01.562Z,81.07
2022-10-28T13:58:27.974Z,81.47
2022-10-28T14:00:54.936Z,80.82
2022-10-28T14:03:21.565Z,81.25
2022-10-28T14:05:48.396Z,81.10
2022-10-28T14:08:15.151Z,81.24
2022-10-28T14:10:41.452Z,81.08
2022-10-28T14:13:08.312Z,81.58
2022-10-28T14:15:34.824Z,81.55
2022-10-28T14:18:10.285Z,81.27
2022-10-28T14:20:42.767Z,81.45
2022-10-28T14:23:09.043Z,81.51
2022-10-28T14:25:35.573Z,81.25
2022-10-28T14:28:01.875Z,81.03
2022-10-28T14:30:28.146Z,81.60
2022-10-28T14:32:54.737Z,81.70
2022-10-28T14:35:21.351Z,81.70
2022-10-28T14:37:47.577Z,81.76
2022-10-28T14:40:14.146Z,81.89
2022-10-28T14:42:40.795Z,81.92
2022-10-28T14:45:07.155Z,81.48
2022-10-28T14:47:33.714Z,81.64
2022-10-28T14:49:59.993Z,81.94
2022-10-28T14:52:26.676Z,81.97
2022-10-28T14:54:53.167Z,81.66
2022-10-28T14:57:19.497Z,81.82
2022-10-28T14:59:45.935Z,81.90
2022-10-28T15:02:12.783Z,81.95
2022-10-28T15:04:39.239Z,81.72
2022-10-28T15:07:05.782Z,81.50
2022-10-28T15:09:32.480Z,81.66
2022-10-28T15:11:58.835Z,81.37
2022-10-28T15:14:25.222Z,81.74
2022-10-28T15:16:51.568Z,82.15
2022-10-28T15:19:17.874Z,81.85
2022-10-28T15:21:44.176Z,81.93
2022-10-28T15:24:10.725Z,81.79
2022-10-28T15:26:37.223Z,81.28
2022-10-28T15:29:03.512Z,81.42
2022-10-28T15:31:30.104Z,81.42
2022-10-28T15:33:56.409Z,81.10
2022-10-28T15:36:22.845Z,81.30
2022-10-28T15:38:49.345Z,81.43
2022-10-28T15:41:15.604Z,81.43
2022-10-28T15:43:41.857Z,81.22
2022-10-28T15:46:08.339Z,81.56
2022-10-28T15:48:34.717Z,81.49
2022-10-28T15:51:01.053Z,81.13
2022-10-28T15:53:27.427Z,81.45
2022-10-28T15:56:07.146Z,81.27
2022-10-28T15:58:34.022Z,81.40
2022-10-28T16:01:00.585Z,81.59
2022-10-28T16:03:27.098Z,81.49
2022-10-28T16:05:53.748Z,81.52
2022-10-28T16:08:20.054Z,81.17
2022-10-28T16:10:46.526Z,81.32
2022-10-28T16:13:12.797Z,81.43
2022-10-28T16:15:39.091Z,81.18
2022-10-28T16:18:05.523Z,80.90
2022-10-28T16:20:32.138Z,80.80
2022-10-28T16:22:58.636Z,80.88
2022-10-28T16:25:25.343Z,80.85
2022-10-28T16:27:51.925Z,81.13
2022-10-28T16:30:18.793Z,80.73
2022-10-28T16:32:45.174Z,81.00
2022-10-28T16:35:11.457Z,80.66
2022-10-28T16:37:43.351Z,80.92
2022-10-28T16:40:30.843Z,80.70
2022-10-28T16:42:58.117Z,80.62
2022-10-28T16:45:24.623Z,80.77
2022-10-28T16:47:51.223Z,80.59
2022-10-28T16:50:17.665Z,81.07
2022-10-28T16:52:43.969Z,81.27
2022-10-28T16:55:10.504Z,80.96
2022-10-28T16:57:36.785Z,80.57
2022-10-28T17:00:03.099Z,80.44
2022-10-28T17:02:29.562Z,81.05
2022-10-28T17:04:56.171Z,80.83
2022-10-28T17:07:22.793Z,80.66
2022-10-28T17:09:49.111Z,80.55
2022-10-28T17:12:15.530Z,80.48
2022-10-28T17:14:42.336Z,80.41
2022-10-28T17:17:08.915Z,80.12
2022-10-28T17:19:35.375Z,80.04
2022-10-28T17:22:05.081Z,80.39
2022-10-28T17:24:33.687Z,80.67
2022-10-28T17:26:59.985Z,80.50
2022-10-28T17:29:27.668Z,81.39
2022-10-28T17:31:54.072Z,80.61
2022-10-28T17:34:20.430Z,83.19
2022-10-28T17:36:46.758Z,80.75
2022-10-28T17:39:17.740Z,81.16
2022-10-28T17:41:45.099Z,81.09
2022-10-28T17:44:11.407Z,80.85
2022-10-28T17:46:37.809Z,81.41
2022-10-28T17:49:04.178Z,80.85
2022-10-28T17:51:31.080Z,81.53
2022-10-28T17:53:57.717Z,81.41
2022-10-28T17:56:24.019Z,81.32
2022-10-28T17:58:50.519Z,81.37
2022-10-28T18:01:17.047Z,81.35
2022-10-28T18:03:43.387Z,81.53
2022-10-28T18:06:10.045Z,80.90
2022-10-28T18:08:36.418Z,81.33
2022-10-28T18:11:02.880Z,80.58
2022-10-28T18:13:30.977Z,80.92
2022-10-28T18:15:57.420Z,81.13
2022-10-28T18:18:23.985Z,80.99
2022-10-28T18:20:50.532Z,80.73
2022-10-28T18:23:16.806Z,81.04
2022-10-28T18:25:43.188Z,81.14
2022-10-28T18:28:09.571Z,81.13
2022-10-28T18:30:36.056Z,80.84
2022-10-28T18:33:02.426Z,80.91
2022-10-28T18:35:28.916Z,81.22
2022-10-28T18:37:56.198Z,80.84
2022-10-28T18:40:22.870Z,80.67
2022-10-28T18:42:49.236Z,80.96
2022-10-28T18:45:15.796Z,80.55
2022-10-28T18:47:42.356Z,80.56
2022-10-28T18:50:08.811Z,80.53
2022-10-28T18:52:35.144Z,80.48
2022-10-28T18:55:01.441Z,80.86
2022-10-28T18:57:27.826Z,80.65
2022-10-28T19:02:44.803Z,80.92
2022-10-28T19:05:13.833Z,81.47
2022-10-28T19:07:40.080Z,81.40
2022-10-28T19:10:06.379Z,81.26
2022-10-28T19:12:32.993Z,81.52
2022-10-28T19:14:59.440Z,81.38
2022-10-28T19:17:25.736Z,81.55
2022-10-28T19:19:51.978Z,81.83
2022-10-28T19:22:18.557Z,81.84
2022-10-28T19:24:44.883Z,81.84
2022-10-28T19:27:11.207Z,81.38
2022-10-28T19:29:37.846Z,82.06
2022-10-28T19:32:04.100Z,81.65
2022-10-28T19:34:30.359Z,81.92
2022-10-28T19:36:56.798Z,82.31
2022-10-28T19:39:23.110Z,82.17
2022-10-28T19:41:49.446Z,81.87
2022-10-28T19:44:16.033Z,82.37
2022-10-28T19:46:42.444Z,82.43
2022-10-28T19:49:10.481Z,82.29
2022-10-28T19:51:36.902Z,82.21
2022-10-28T19:54:03.213Z,81.89
2022-10-28T19:56:30.995Z,82.08
2022-10-28T19:58:57.400Z,82.17
2022-10-28T20:01:23.885Z,82.00
2022-10-28T20:03:50.278Z,82.14
2022-10-28T20:06:18.289Z,82.18
2022-10-28T20:08:46.685Z,82.24
2022-10-28T20:11:12.996Z,81.64
2022-10-28T20:13:39.451Z,82.16
2022-10-28T20:16:06.104Z,81.84
2022-10-28T20:18:32.548Z,81.90
2022-10-28T20:20:59.059Z,81.75
2022-10-28T20:23:25.692Z,82.07
2022-10-28T20:25:52.189Z,82.01
2022-10-28T20:28:18.549Z,82.08
2022-10-28T20:30:44.888Z,81.95
2022-10-28T20:33:11.183Z,81.80
2022-10-28T20:35:37.576Z,81.72
2022-10-28T20:38:04.075Z,81.77
2022-10-28T20:40:30.391Z,81.81
2022-10-28T20:42:57.260Z,81.48
2022-10-28T20:45:23.892Z,81.73
2022-10-28T20:47:50.195Z,81.35
2022-10-28T20:50:16.544Z,81.10
2022-10-28T20:52:42.824Z,80.90
2022-10-28T20:55:09.162Z,80.76
2022-10-28T20:57:35.485Z,81.17
2022-10-28T21:00:01.772Z,80.96
2022-10-28T21:02:28.526Z,81.34
2022-10-28T21:04:54.985Z,81.03
2022-10-28T21:07:21.308Z,81.35
2022-10-28T21:09:47.756Z,81.34
2022-10-28T21:12:14.034Z,81.22
2022-10-28T21:14:40.263Z,81.24
2022-10-28T21:17:06.743Z,80.92
2022-10-28T21:19:33.553Z,81.01
2022-10-28T21:21:59.892Z,80.96
2022-10-28T21:24:26.422Z,81.32
2022-10-28T21:26:52.720Z,81.05
2022-10-28T21:29:18.973Z,80.78
2022-10-28T21:31:45.241Z,80.42
2022-10-28T21:34:11.692Z,80.78
2022-10-28T21:36:39.033Z,80.37
2022-10-28T21:39:05.303Z,80.37
2022-10-28T21:41:31.612Z,80.11
2022-10-28T21:43:58.008Z,80.11
2022-10-28T21:46:24.313Z,79.96
2022-10-28T21:48:50.747Z,80.25
2022-10-28T21:51:17.057Z,80.15
2022-10-28T21:53:43.608Z,79.97
2022-10-28T21:56:13.774Z,80.35
2022-10-28T21:58:42.877Z,80.18
2022-10-28T22:01:09.296Z,80.30
2022-10-28T22:03:35.749Z,80.16
2022-10-28T22:06:02.173Z,79.92
2022-10-28T22:08:30.158Z,80.01
2022-10-28T22:10:56.488Z,79.66
2022-10-28T22:13:22.876Z,80.00
2022-10-28T22:15:49.266Z,79.87
2022-10-28T22:18:15.731Z,79.38
2022-10-28T22:20:42.046Z,79.87
2022-10-28T22:23:08.361Z,79.26
2022-10-28T22:25:34.615Z,79.41
2022-10-28T22:28:00.888Z,78.96
2022-10-28T22:30:27.291Z,78.83
2022-10-28T22:32:53.736Z,79.03
2022-10-28T22:35:20.251Z,78.65
2022-10-28T22:37:46.800Z,78.86
2022-10-28T22:40:13.039Z,78.90
2022-10-28T22:42:39.784Z,79.07
2022-10-28T22:45:06.048Z,78.77
2022-10-28T22:47:32.778Z,78.49
2022-10-28T22:49:59.131Z,78.58
2022-10-28T22:52:25.389Z,78.73
2022-10-28T22:54:51.740Z,78.74
2022-10-28T22:57:17.991Z,78.86
2022-10-28T22:59:44.347Z,78.60
2022-10-28T23:02:10.822Z,78.31
2022-10-28T23:04:37.283Z,78.58
2022-10-28T23:07:03.818Z,78.63
2022-10-28T23:09:30.072Z,78.58
2022-10-28T23:11:56.407Z,78.72
2022-10-28T23:14:22.682Z,78.49
2022-10-28T23:16:49.105Z,78.51
2022-10-28T23:19:15.407Z,78.59
2022-10-28T23:21:41.731Z,78.44
2022-10-28T23:24:08.017Z,78.34
2022-10-28T23:26:35.264Z,78.44
2022-10-28T23:29:01.709Z,77.95
2022-10-28T23:31:28.198Z,78.17
2022-10-28T23:33:54.817Z,77.84
2022-10-28T23:36:21.130Z,78.44
2022-10-28T23:38:47.404Z,78.16
2022-10-28T23:41:13.995Z,78.34
2022-10-28T23:43:40.250Z,77.88
2022-10-28T23:46:06.595Z,77.84
2022-10-28T23:48:33.017Z,78.08
2022-10-28T23:50:59.373Z,77.63
2022-10-28T23:53:25.818Z,78.13
2022-10-28T23:55:52.153Z,78.06
2022-10-28T23:58:18.495Z,77.69
